createdAt,value
2022-09-21T00:00:49.203Z,1016.62
2022-09-21T00:01:49.113Z,1016.67
2022-09-21T00:02:49.116Z,1016.63
2022-09-21T00:03:49.109Z,1016.67
2022-09-21T00:04:49.101Z,1016.64
2022-09-21T00:05:49.112Z,1016.63
2022-09-21T00:06:49.077Z,1016.63
2022-09-21T00:07:49.072Z,1016.58
2022-09-21T00:08:49.051Z,1016.64
2022-09-21T00:09:49.020Z,1016.67
2022-09-21T00:10:49.057Z,1016.69
2022-09-21T00:11:49.016Z,1016.72
2022-09-21T00:12:49.011Z,1016.70
2022-09-21T00:13:49.000Z,1016.72
2022-09-21T00:14:48.991Z,1016.75
2022-09-21T00:15:49.022Z,1016.76
2022-09-21T00:16:49.040Z,1016.78
2022-09-21T00:17:48.954Z,1016.75
2022-09-21T00:18:48.943Z,1016.73
2022-09-21T00:19:48.935Z,1016.75
2022-09-21T00:20:48.956Z,1016.73
2022-09-21T00:21:48.922Z,1016.73
2022-09-21T00:22:48.893Z,1016.72
2022-09-21T00:23:48.865Z,1016.73
2022-09-21T00:24:48.871Z,1016.73
2022-09-21T00:25:48.901Z,1016.71
2022-09-21T00:26:48.855Z,1016.73
2022-09-21T00:27:48.821Z,1016.77
2022-09-21T00:28:48.832Z,1016.72
2022-09-21T00:29:48.817Z,1016.77
2022-09-21T00:30:48.807Z,1016.81
2022-09-21T00:31:48.829Z,1016.76
2022-09-21T00:32:48.767Z,1016.76
2022-09-21T00:33:48.779Z,1016.78
2022-09-21T00:34:48.754Z,1016.84
2022-09-21T00:35:48.758Z,1016.81
2022-09-21T00:36:48.766Z,1016.83
2022-09-21T00:37:48.718Z,1016.85
2022-09-21T00:38:48.709Z,1016.87
2022-09-21T00:39:48.686Z,1016.82
2022-09-21T00:40:48.690Z,1016.83
2022-09-21T00:41:48.715Z,1016.88
2022-09-21T00:42:48.676Z,1016.85
2022-09-21T00:43:48.652Z,1016.87
2022-09-21T00:44:48.647Z,1016.84
2022-09-21T00:45:48.661Z,1016.84
2022-09-21T00:46:48.661Z,1016.84
2022-09-21T00:47:48.613Z,1016.86
2022-09-21T00:48:48.601Z,1016.89
2022-09-21T00:49:48.594Z,1016.84
2022-09-21T00:50:48.567Z,1016.85
2022-09-21T00:51:48.584Z,1016.91
2022-09-21T00:52:48.553Z,1016.88
2022-09-21T00:53:48.530Z,1016.88
2022-09-21T00:54:48.517Z,1016.87
2022-09-21T00:55:48.512Z,1016.87
2022-09-21T00:56:48.541Z,1016.85
2022-09-21T00:57:48.490Z,1016.88
2022-09-21T00:58:48.487Z,1016.91
2022-09-21T00:59:48.473Z,1016.94
2022-09-21T01:00:48.509Z,1016.90
2022-09-21T01:01:48.525Z,1016.90
2022-09-21T01:02:48.420Z,1016.88
2022-09-21T01:03:48.411Z,1016.91
2022-09-21T01:04:48.396Z,1016.90
2022-09-21T01:05:48.396Z,1016.94
2022-09-21T01:06:48.424Z,1016.93
2022-09-21T01:07:48.397Z,1016.93
2022-09-21T01:08:48.377Z,1016.91
2022-09-21T01:09:48.360Z,1016.90
2022-09-21T01:10:48.341Z,1016.90
2022-09-21T01:11:48.382Z,1016.91
2022-09-21T01:12:48.327Z,1016.92
2022-09-21T01:13:48.306Z,1016.90
2022-09-21T01:14:48.307Z,1016.95
2022-09-21T01:15:48.292Z,1016.94
2022-09-21T01:16:48.305Z,1016.97
2022-09-21T01:17:48.279Z,1016.94
2022-09-21T01:18:48.248Z,1016.97
2022-09-21T01:19:48.271Z,1016.96
2022-09-21T01:20:48.232Z,1016.97
2022-09-21T01:21:48.261Z,1016.99
2022-09-21T01:22:48.210Z,1016.94
2022-09-21T01:23:48.209Z,1016.91
2022-09-21T01:24:48.188Z,1016.95
2022-09-21T01:25:48.173Z,1016.96
2022-09-21T01:26:48.161Z,1016.97
2022-09-21T01:27:48.192Z,1017.02
2022-09-21T01:28:48.143Z,1017.02
2022-09-21T01:29:48.132Z,1016.96
2022-09-21T01:30:49.141Z,1017.01
2022-09-21T01:31:48.145Z,1016.99
2022-09-21T01:32:48.133Z,1017.03
2022-09-21T01:33:48.095Z,1017.00
2022-09-21T01:34:48.057Z,1017.01
2022-09-21T01:35:48.054Z,1016.99
2022-09-21T01:36:48.040Z,1017.02
2022-09-21T01:37:48.082Z,1017.00
2022-09-21T01:38:48.028Z,1017.03
2022-09-21T01:39:48.034Z,1017.04
2022-09-21T01:40:48.106Z,1017.06
2022-09-21T01:41:48.017Z,1017.09
2022-09-21T01:42:48.035Z,1017.10
2022-09-21T01:43:47.990Z,1017.11
2022-09-21T01:44:47.969Z,1017.08
2022-09-21T01:45:47.989Z,1017.09
2022-09-21T01:46:47.946Z,1017.10
2022-09-21T01:47:47.955Z,1017.08
2022-09-21T01:48:47.926Z,1017.07
2022-09-21T01:49:47.909Z,1017.07
2022-09-21T01:50:47.912Z,1017.10
2022-09-21T01:51:47.902Z,1017.13
2022-09-21T01:52:47.931Z,1017.08
2022-09-21T01:53:47.886Z,1017.09
2022-09-21T01:54:47.847Z,1017.10
2022-09-21T01:55:47.860Z,1017.13
2022-09-21T01:56:47.827Z,1017.14
2022-09-21T01:57:47.872Z,1017.17
2022-09-21T01:58:47.812Z,1017.14
2022-09-21T01:59:47.814Z,1017.15
2022-09-21T02:00:47.823Z,1017.19
2022-09-21T02:01:47.830Z,1017.18
2022-09-21T02:02:47.817Z,1017.22
2022-09-21T02:03:47.771Z,1017.23
2022-09-21T02:04:47.747Z,1017.21
2022-09-21T02:05:47.774Z,1017.24
2022-09-21T02:06:47.705Z,1017.24
2022-09-21T02:07:47.734Z,1017.27
2022-09-21T02:08:47.686Z,1017.29
2022-09-21T02:09:47.697Z,1017.23
2022-09-21T02:10:47.685Z,1017.23
2022-09-21T02:11:47.677Z,1017.21
2022-09-21T02:12:47.706Z,1017.21
2022-09-21T02:13:47.655Z,1017.17
2022-09-21T02:14:47.625Z,1017.19
2022-09-21T02:15:47.693Z,1017.25
2022-09-21T02:16:47.608Z,1017.22
2022-09-21T02:17:47.614Z,1017.20
2022-09-21T02:18:47.634Z,1017.21
2022-09-21T02:19:47.570Z,1017.20
2022-09-21T02:20:47.572Z,1017.24
2022-09-21T02:21:47.563Z,1017.24
2022-09-21T02:22:47.540Z,1017.21
2022-09-21T02:23:47.580Z,1017.23
2022-09-21T02:24:47.530Z,1017.22
2022-09-21T02:25:47.523Z,1017.25
2022-09-21T02:26:47.503Z,1017.28
2022-09-21T02:27:47.494Z,1017.24
2022-09-21T02:28:47.511Z,1017.26
2022-09-21T02:29:47.478Z,1017.25
2022-09-21T02:30:47.459Z,1017.27
2022-09-21T02:31:47.434Z,1017.20
2022-09-21T02:32:47.427Z,1017.19
2022-09-21T02:33:47.501Z,1017.25
2022-09-21T02:34:47.414Z,1017.25
2022-09-21T02:35:47.400Z,1017.23
2022-09-21T02:36:47.386Z,1017.21
2022-09-21T02:37:47.361Z,1017.23
2022-09-21T02:38:47.381Z,1017.21
2022-09-21T02:39:47.335Z,1017.21
2022-09-21T02:40:47.321Z,1017.21
2022-09-21T02:41:47.342Z,1017.21
2022-09-21T02:42:47.315Z,1017.13
2022-09-21T02:43:47.337Z,1017.20
2022-09-21T02:44:47.295Z,1017.22
2022-09-21T02:45:47.265Z,1017.22
2022-09-21T02:46:47.310Z,1017.25
2022-09-21T02:47:47.251Z,1017.23
2022-09-21T02:48:47.269Z,1017.24
2022-09-21T02:49:47.223Z,1017.26
2022-09-21T02:50:47.234Z,1017.25
2022-09-21T02:51:47.260Z,1017.28
2022-09-21T02:52:47.199Z,1017.28
2022-09-21T02:53:47.234Z,1017.25
2022-09-21T02:54:47.183Z,1017.26
2022-09-21T02:55:47.162Z,1017.32
2022-09-21T02:56:47.143Z,1017.27
2022-09-21T02:57:47.152Z,1017.29
2022-09-21T02:58:47.162Z,1017.31
2022-09-21T02:59:47.137Z,1017.29
2022-09-21T03:00:47.135Z,1017.31
2022-09-21T03:01:47.182Z,1017.32
2022-09-21T03:02:47.081Z,1017.29
2022-09-21T03:03:47.103Z,1017.36
2022-09-21T03:04:47.055Z,1017.36
2022-09-21T03:05:47.053Z,1017.34
2022-09-21T03:06:47.038Z,1017.32
2022-09-21T03:07:47.025Z,1017.36
2022-09-21T03:08:47.048Z,1017.36
2022-09-21T03:09:46.981Z,1017.40
2022-09-21T03:10:46.973Z,1017.37
2022-09-21T03:11:46.956Z,1017.39
2022-09-21T03:12:46.968Z,1017.43
2022-09-21T03:13:46.995Z,1017.42
2022-09-21T03:14:46.933Z,1017.44
2022-09-21T03:15:46.970Z,1017.41
2022-09-21T03:16:46.915Z,1017.44
2022-09-21T03:17:46.906Z,1017.44
2022-09-21T03:18:46.921Z,1017.43
2022-09-21T03:19:46.875Z,1017.44
2022-09-21T03:20:46.880Z,1017.40
2022-09-21T03:21:46.864Z,1017.44
2022-09-21T03:22:46.860Z,1017.46
2022-09-21T03:23:46.905Z,1017.47
2022-09-21T03:24:46.844Z,1017.45
2022-09-21T03:25:46.827Z,1017.46
2022-09-21T03:26:46.797Z,1017.46
2022-09-21T03:27:46.811Z,1017.48
2022-09-21T03:28:46.777Z,1017.47
2022-09-21T03:29:46.809Z,1017.47
2022-09-21T03:30:46.811Z,1017.43
2022-09-21T03:31:46.765Z,1017.45
2022-09-21T03:32:46.743Z,1017.46
2022-09-21T03:33:46.727Z,1017.43
2022-09-21T03:34:46.748Z,1017.49
2022-09-21T03:35:46.702Z,1017.44
2022-09-21T03:36:46.720Z,1017.49
2022-09-21T03:37:46.683Z,1017.51
2022-09-21T03:38:46.680Z,1017.49
2022-09-21T03:39:46.703Z,1017.48
2022-09-21T03:40:46.637Z,1017.49
2022-09-21T03:41:46.621Z,1017.51
2022-09-21T03:42:46.618Z,1017.51
2022-09-21T03:43:46.613Z,1017.49
2022-09-21T03:44:46.654Z,1017.49
2022-09-21T03:45:46.607Z,1017.51
2022-09-21T03:46:46.579Z,1017.50
2022-09-21T03:47:46.563Z,1017.51
2022-09-21T03:48:46.537Z,1017.51
2022-09-21T03:49:46.584Z,1017.54
2022-09-21T03:50:46.539Z,1017.53
2022-09-21T03:51:46.542Z,1017.54
2022-09-21T03:52:46.532Z,1017.55
2022-09-21T03:53:46.560Z,1017.61
2022-09-21T03:54:46.512Z,1017.53
2022-09-21T03:55:46.482Z,1017.62
2022-09-21T03:56:46.457Z,1017.59
2022-09-21T03:57:46.465Z,1017.59
2022-09-21T03:58:46.444Z,1017.58
2022-09-21T03:59:46.469Z,1017.56
2022-09-21T04:00:46.419Z,1017.53
2022-09-21T04:01:46.483Z,1017.56
2022-09-21T04:02:46.457Z,1017.57
2022-09-21T04:03:46.392Z,1017.58
2022-09-21T04:04:46.408Z,1017.60
2022-09-21T04:05:46.367Z,1017.62
2022-09-21T04:06:46.373Z,1017.57
2022-09-21T04:07:46.341Z,1017.62
2022-09-21T04:08:46.341Z,1017.59
2022-09-21T04:09:46.379Z,1017.59
2022-09-21T04:10:46.330Z,1017.61
2022-09-21T04:11:46.304Z,1017.60
2022-09-21T04:12:46.269Z,1017.64
2022-09-21T04:13:46.269Z,1017.62
2022-09-21T04:14:46.280Z,1017.64
2022-09-21T04:15:46.304Z,1017.62
2022-09-21T04:16:46.233Z,1017.68
2022-09-21T04:17:46.249Z,1017.70
2022-09-21T04:18:46.223Z,1017.73
2022-09-21T04:19:46.243Z,1017.75
2022-09-21T04:20:46.203Z,1017.75
2022-09-21T04:21:46.228Z,1017.74
2022-09-21T04:22:46.180Z,1017.70
2022-09-21T04:23:46.173Z,1017.72
2022-09-21T04:24:46.185Z,1017.68
2022-09-21T04:25:46.128Z,1017.73
2022-09-21T04:26:46.133Z,1017.75
2022-09-21T04:27:46.113Z,1017.71
2022-09-21T04:28:46.124Z,1017.77
2022-09-21T04:29:46.141Z,1017.78
2022-09-21T04:30:46.167Z,1017.80
2022-09-21T04:31:46.075Z,1017.78
2022-09-21T04:32:46.072Z,1017.79
2022-09-21T04:33:46.053Z,1017.79
2022-09-21T04:34:46.087Z,1017.80
2022-09-21T04:35:46.032Z,1017.84
2022-09-21T04:36:46.022Z,1017.83
2022-09-21T04:37:45.998Z,1017.85
2022-09-21T04:38:45.990Z,1017.88
2022-09-21T04:39:46.019Z,1017.80
2022-09-21T04:40:45.993Z,1017.81
2022-09-21T04:41:45.983Z,1017.81
2022-09-21T04:42:45.963Z,1017.79
2022-09-21T04:43:45.922Z,1017.78
2022-09-21T04:44:45.944Z,1017.87
2022-09-21T04:45:45.914Z,1017.92
2022-09-21T04:46:45.903Z,1017.92
2022-09-21T04:47:45.898Z,1017.95
2022-09-21T04:48:45.881Z,1017.93
2022-09-21T04:49:45.937Z,1017.97
2022-09-21T04:50:45.852Z,1017.97
2022-09-21T04:51:45.865Z,1017.94
2022-09-21T04:52:45.863Z,1017.95
2022-09-21T04:53:45.821Z,1017.88
2022-09-21T04:54:45.827Z,1017.94
2022-09-21T04:55:45.860Z,1017.88
2022-09-21T04:56:45.798Z,1017.94
2022-09-21T04:57:45.785Z,1017.95
2022-09-21T04:58:45.778Z,1017.93
2022-09-21T04:59:45.815Z,1017.93
2022-09-21T05:00:45.763Z,1017.90
2022-09-21T05:01:45.777Z,1017.92
2022-09-21T05:02:45.719Z,1017.88
2022-09-21T05:03:45.776Z,1017.88
2022-09-21T05:04:50.656Z,1017.86
2022-09-21T05:05:46.696Z,1017.87
2022-09-21T05:06:45.690Z,1017.86
2022-09-21T05:07:45.699Z,1017.89
2022-09-21T05:08:45.654Z,1017.92
2022-09-21T05:09:45.695Z,1017.88
2022-09-21T05:10:45.634Z,1017.94
2022-09-21T05:11:45.618Z,1017.91
2022-09-21T05:12:45.615Z,1017.90
2022-09-21T05:13:45.594Z,1017.89
2022-09-21T05:14:45.592Z,1017.87
2022-09-21T05:15:45.634Z,1017.88
2022-09-21T05:16:45.550Z,1017.87
2022-09-21T05:17:45.546Z,1017.84
2022-09-21T05:18:45.550Z,1017.84
2022-09-21T05:19:45.575Z,1017.88
2022-09-21T05:20:45.519Z,1017.92
2022-09-21T05:21:45.527Z,1017.90
2022-09-21T05:22:45.497Z,1017.93
2022-09-21T05:23:45.494Z,1017.97
2022-09-21T05:24:45.518Z,1017.95
2022-09-21T05:25:45.459Z,1017.96
2022-09-21T05:26:45.459Z,1018.03
2022-09-21T05:27:45.431Z,1018.00
2022-09-21T05:28:45.421Z,1018.07
2022-09-21T05:29:45.463Z,1018.11
2022-09-21T05:31:07.216Z,1018.06
2022-09-21T05:31:46.485Z,1018.06
2022-09-21T05:32:45.411Z,1018.05
2022-09-21T05:33:45.389Z,1018.09
2022-09-21T05:34:45.414Z,1018.10
2022-09-21T05:35:45.345Z,1018.10
2022-09-21T05:36:45.349Z,1018.14
2022-09-21T05:37:45.374Z,1018.13
2022-09-21T05:38:45.319Z,1018.12
2022-09-21T05:39:45.351Z,1018.13
2022-09-21T05:40:45.300Z,1018.10
2022-09-21T05:41:45.274Z,1018.15
2022-09-21T05:42:45.283Z,1018.10
2022-09-21T05:43:45.253Z,1018.16
2022-09-21T05:44:45.286Z,1018.18
2022-09-21T05:45:47.686Z,1018.20
2022-09-21T05:46:45.243Z,1018.22
2022-09-21T05:47:45.221Z,1018.22
2022-09-21T05:48:45.180Z,1018.22
2022-09-21T05:49:45.219Z,1018.22
2022-09-21T05:50:45.184Z,1018.23
2022-09-21T05:51:45.182Z,1018.17
2022-09-21T05:52:45.170Z,1018.18
2022-09-21T05:53:45.154Z,1018.21
2022-09-21T05:54:45.206Z,1018.21
2022-09-21T05:55:45.142Z,1018.24
2022-09-21T05:56:45.114Z,1018.22
2022-09-21T05:57:45.093Z,1018.18
2022-09-21T05:58:45.096Z,1018.23
2022-09-21T05:59:45.141Z,1018.19
2022-09-21T06:00:45.083Z,1018.24
2022-09-21T06:01:45.057Z,1018.21
2022-09-21T06:02:45.183Z,1018.26
2022-09-21T06:03:45.028Z,1018.22
2022-09-21T06:04:45.064Z,1018.25
2022-09-21T06:05:45.016Z,1018.23
2022-09-21T06:06:45.002Z,1018.23
2022-09-21T06:07:44.998Z,1018.21
2022-09-21T06:08:44.979Z,1018.19
2022-09-21T06:09:45.003Z,1018.22
2022-09-21T06:10:44.963Z,1018.22
2022-09-21T06:11:44.940Z,1018.20
2022-09-21T06:12:44.947Z,1018.20
2022-09-21T06:13:44.922Z,1018.21
2022-09-21T06:14:44.947Z,1018.21
2022-09-21T06:15:44.897Z,1018.22
2022-09-21T06:16:44.915Z,1018.21
2022-09-21T06:17:44.878Z,1018.22
2022-09-21T06:18:44.841Z,1018.25
2022-09-21T06:19:44.878Z,1018.27
2022-09-21T06:20:44.831Z,1018.27
2022-09-21T06:21:44.850Z,1018.25
2022-09-21T06:22:44.821Z,1018.22
2022-09-21T06:23:44.812Z,1018.23
2022-09-21T06:24:44.819Z,1018.30
2022-09-21T06:25:44.780Z,1018.28
2022-09-21T06:26:44.784Z,1018.27
2022-09-21T06:27:44.752Z,1018.31
2022-09-21T06:28:44.772Z,1018.28
2022-09-21T06:29:44.798Z,1018.28
2022-09-21T06:30:44.777Z,1018.32
2022-09-21T06:31:44.718Z,1018.29
2022-09-21T06:32:44.739Z,1018.32
2022-09-21T06:33:47.972Z,1018.31
2022-09-21T06:34:44.688Z,1018.31
2022-09-21T06:35:44.705Z,1018.32
2022-09-21T06:36:44.661Z,1018.32
2022-09-21T06:37:44.681Z,1018.26
2022-09-21T06:38:44.662Z,1018.24
2022-09-21T06:39:44.687Z,1018.27
2022-09-21T06:40:44.686Z,1018.31
2022-09-21T06:41:44.625Z,1018.31
2022-09-21T06:42:44.602Z,1018.31
2022-09-21T06:43:44.591Z,1018.23
2022-09-21T06:44:44.581Z,1018.31
2022-09-21T06:45:44.642Z,1018.32
2022-09-21T06:46:44.565Z,1018.34
2022-09-21T06:47:44.539Z,1018.34
2022-09-21T06:48:44.509Z,1018.29
2022-09-21T06:49:44.514Z,1018.34
2022-09-21T06:50:44.521Z,1018.33
2022-09-21T06:51:44.480Z,1018.34
2022-09-21T06:52:44.496Z,1018.33
2022-09-21T06:53:44.476Z,1018.28
2022-09-21T06:54:44.447Z,1018.30
2022-09-21T06:55:44.490Z,1018.24
2022-09-21T06:56:44.447Z,1018.31
2022-09-21T06:57:44.420Z,1018.24
2022-09-21T06:58:44.419Z,1018.31
2022-09-21T06:59:44.402Z,1018.30
2022-09-21T07:00:44.476Z,1018.31
2022-09-21T07:01:44.468Z,1018.28
2022-09-21T07:02:44.388Z,1018.30
2022-09-21T07:03:44.362Z,1018.35
2022-09-21T07:04:44.371Z,1018.34
2022-09-21T07:05:44.344Z,1018.33
2022-09-21T07:06:44.322Z,1018.35
2022-09-21T07:07:44.315Z,1018.35
2022-09-21T07:10:45.292Z,1018.43
2022-09-21T07:11:44.285Z,1018.39
2022-09-21T07:12:44.260Z,1018.40
2022-09-21T07:13:44.245Z,1018.37
2022-09-21T07:14:44.230Z,1018.41
2022-09-21T07:15:44.264Z,1018.44
2022-09-21T07:16:44.292Z,1018.43
2022-09-21T07:17:50.074Z,1018.39
2022-09-21T07:18:45.198Z,1018.42
2022-09-21T07:19:44.170Z,1018.43
2022-09-21T07:20:44.196Z,1018.48
2022-09-21T07:21:44.141Z,1018.45
2022-09-21T07:22:44.130Z,1018.46
2022-09-21T07:23:44.144Z,1018.48
2022-09-21T07:24:44.125Z,1018.46
2022-09-21T07:25:44.151Z,1018.47
2022-09-21T07:26:44.131Z,1018.46
2022-09-21T07:27:44.091Z,1018.47
2022-09-21T07:28:44.080Z,1018.50
2022-09-21T07:29:44.075Z,1018.52
2022-09-21T07:30:44.093Z,1018.50
2022-09-21T07:31:44.095Z,1018.53
2022-09-21T07:32:44.028Z,1018.55
2022-09-21T07:33:44.015Z,1018.48
2022-09-21T07:34:44.039Z,1018.48
2022-09-21T07:35:44.003Z,1018.54
2022-09-21T07:36:43.979Z,1018.59
2022-09-21T07:37:44.001Z,1018.55
2022-09-21T07:38:43.977Z,1018.52
2022-09-21T07:39:43.960Z,1018.47
2022-09-21T07:40:44.027Z,1018.50
2022-09-21T07:41:43.912Z,1018.48
2022-09-21T07:42:43.928Z,1018.45
2022-09-21T07:43:43.891Z,1018.49
2022-09-21T07:44:44.944Z,1018.51
2022-09-21T07:45:43.889Z,1018.47
2022-09-21T07:46:48.028Z,1018.56
2022-09-21T07:47:43.863Z,1018.50
2022-09-21T07:48:43.858Z,1018.45
2022-09-21T07:49:43.837Z,1018.51
2022-09-21T07:50:43.860Z,1018.51
2022-09-21T07:51:43.807Z,1018.52
2022-09-21T07:52:43.786Z,1018.50
2022-09-21T07:53:43.777Z,1018.47
2022-09-21T07:54:43.789Z,1018.44
2022-09-21T07:55:43.808Z,1018.44
2022-09-21T07:56:43.784Z,1018.43
2022-09-21T07:57:43.736Z,1018.53
2022-09-21T07:58:43.741Z,1018.48
2022-09-21T07:59:43.716Z,1018.54
2022-09-21T08:00:43.768Z,1018.54
2022-09-21T08:01:43.731Z,1018.50
2022-09-21T08:02:47.418Z,1018.52
2022-09-21T08:03:43.682Z,1018.55
2022-09-21T08:04:43.659Z,1018.53
2022-09-21T08:05:43.717Z,1018.50
2022-09-21T08:06:43.658Z,1018.52
2022-09-21T08:07:43.643Z,1018.48
2022-09-21T08:08:43.627Z,1018.52
2022-09-21T08:09:43.612Z,1018.53
2022-09-21T08:10:43.656Z,1018.49
2022-09-21T08:11:43.590Z,1018.53
2022-09-21T08:12:43.600Z,1018.57
2022-09-21T08:13:43.566Z,1018.56
2022-09-21T08:14:43.559Z,1018.50
2022-09-21T08:15:49.787Z,1018.51
2022-09-21T08:16:44.592Z,1018.53
2022-09-21T08:17:43.516Z,1018.53
2022-09-21T08:18:43.535Z,1018.51
2022-09-21T08:19:44.272Z,1018.56
2022-09-21T08:20:43.528Z,1018.57
2022-09-21T08:21:43.473Z,1018.56
2022-09-21T08:22:43.465Z,1018.59
2022-09-21T08:23:43.432Z,1018.58
2022-09-21T08:24:43.449Z,1018.56
2022-09-21T08:25:43.480Z,1018.57
2022-09-21T08:26:43.428Z,1018.53
2022-09-21T08:27:43.383Z,1018.54
2022-09-21T08:28:43.410Z,1018.56
2022-09-21T08:29:43.391Z,1018.57
2022-09-21T08:30:43.398Z,1018.54
2022-09-21T08:31:43.452Z,1018.56
2022-09-21T08:32:51.796Z,1018.56
2022-09-21T08:33:44.346Z,1018.62
2022-09-21T08:34:43.383Z,1018.59
2022-09-21T08:35:43.347Z,1018.58
2022-09-21T08:36:43.301Z,1018.63
2022-09-21T08:37:43.293Z,1018.59
2022-09-21T08:38:43.284Z,1018.60
2022-09-21T08:39:43.307Z,1018.63
2022-09-21T08:40:43.320Z,1018.64
2022-09-21T08:41:43.266Z,1018.62
2022-09-21T08:42:46.389Z,1018.61
2022-09-21T08:43:44.218Z,1018.59
2022-09-21T08:44:43.223Z,1018.65
2022-09-21T08:45:43.250Z,1018.63
2022-09-21T08:46:43.297Z,1018.68
2022-09-21T08:47:43.195Z,1018.72
2022-09-21T08:48:43.183Z,1018.68
2022-09-21T08:49:43.155Z,1018.64
2022-09-21T08:50:43.182Z,1018.66
2022-09-21T08:51:43.180Z,1018.66
2022-09-21T08:52:45.727Z,1018.66
2022-09-21T08:53:43.104Z,1018.68
2022-09-21T08:54:43.095Z,1018.75
2022-09-21T08:55:43.118Z,1018.73
2022-09-21T08:57:03.913Z,1018.74
2022-09-21T08:57:45.358Z,1018.69
2022-09-21T08:58:43.065Z,1018.70
2022-09-21T08:59:43.054Z,1018.74
2022-09-21T09:00:43.125Z,1018.73
2022-09-21T09:01:43.053Z,1018.75
2022-09-21T09:02:43.017Z,1018.76
2022-09-21T09:03:42.998Z,1018.69
2022-09-21T09:04:43.000Z,1018.69
2022-09-21T09:05:43.023Z,1018.69
2022-09-21T09:06:42.964Z,1018.72
2022-09-21T09:07:42.966Z,1018.72
2022-09-21T09:08:42.934Z,1018.75
2022-09-21T09:09:42.943Z,1018.73
2022-09-21T09:10:42.960Z,1018.72
2022-09-21T09:11:42.919Z,1018.73
2022-09-21T09:12:42.898Z,1018.78
2022-09-21T09:13:42.876Z,1018.71
2022-09-21T09:14:42.872Z,1018.68
2022-09-21T09:15:42.912Z,1018.73
2022-09-21T09:16:42.878Z,1018.72
2022-09-21T09:17:42.843Z,1018.71
2022-09-21T09:18:43.672Z,1018.66
2022-09-21T09:19:42.810Z,1018.68
2022-09-21T09:20:42.834Z,1018.70
2022-09-21T09:21:42.793Z,1018.65
2022-09-21T09:22:42.820Z,1018.67
2022-09-21T09:23:42.784Z,1018.68
2022-09-21T09:24:42.770Z,1018.69
2022-09-21T09:25:42.781Z,1018.66
2022-09-21T09:26:42.806Z,1018.63
2022-09-21T09:27:42.737Z,1018.66
2022-09-21T09:28:42.706Z,1018.64
2022-09-21T09:29:42.751Z,1018.65
2022-09-21T09:30:42.687Z,1018.63
2022-09-21T09:31:42.779Z,1018.63
2022-09-21T09:32:42.692Z,1018.64
2022-09-21T09:33:42.657Z,1018.61
2022-09-21T09:34:42.682Z,1018.59
2022-09-21T09:35:42.638Z,1018.59
2022-09-21T09:36:57.790Z,1018.56
2022-09-21T09:37:43.618Z,1018.58
2022-09-21T09:38:42.606Z,1018.58
2022-09-21T09:39:42.667Z,1018.54
2022-09-21T09:40:42.578Z,1018.60
2022-09-21T09:41:42.583Z,1018.56
2022-09-21T09:42:42.560Z,1018.54
2022-09-21T09:43:42.528Z,1018.54
2022-09-21T09:44:42.594Z,1018.58
2022-09-21T09:45:42.554Z,1018.58
2022-09-21T09:46:42.535Z,1018.55
2022-09-21T09:47:42.514Z,1018.54
2022-09-21T09:48:42.505Z,1018.55
2022-09-21T09:49:42.505Z,1018.55
2022-09-21T09:50:42.465Z,1018.51
2022-09-21T09:51:42.450Z,1018.55
2022-09-21T09:52:42.431Z,1018.52
2022-09-21T09:53:42.436Z,1018.52
2022-09-21T09:54:42.457Z,1018.52
2022-09-21T09:55:42.438Z,1018.52
2022-09-21T09:56:42.391Z,1018.56
2022-09-21T09:57:42.395Z,1018.53
2022-09-21T09:58:42.377Z,1018.50
2022-09-21T09:59:42.411Z,1018.50
2022-09-21T10:00:42.343Z,1018.51
2022-09-21T10:01:43.039Z,1018.52
2022-09-21T10:02:42.346Z,1018.59
2022-09-21T10:03:42.335Z,1018.56
2022-09-21T10:04:42.402Z,1018.66
2022-09-21T10:05:42.303Z,1018.56
2022-09-21T10:06:45.995Z,1018.65
2022-09-21T10:07:42.290Z,1018.56
2022-09-21T10:08:42.301Z,1018.60
2022-09-21T10:09:42.263Z,1018.54
2022-09-21T10:10:42.279Z,1018.54
2022-09-21T10:11:42.246Z,1018.50
2022-09-21T10:12:42.253Z,1018.56
2022-09-21T10:13:42.223Z,1018.54
2022-09-21T10:14:42.196Z,1018.48
2022-09-21T10:15:42.267Z,1018.47
2022-09-21T10:16:42.183Z,1018.52
2022-09-21T10:17:42.177Z,1018.51
2022-09-21T10:18:42.155Z,1018.51
2022-09-21T10:19:42.159Z,1018.55
2022-09-21T10:20:42.147Z,1018.43
2022-09-21T10:21:42.111Z,1018.42
2022-09-21T10:22:42.096Z,1018.44
2022-09-21T10:23:42.086Z,1018.46
2022-09-21T10:24:42.098Z,1018.40
2022-09-21T10:25:42.116Z,1018.47
2022-09-21T10:26:42.084Z,1018.39
2022-09-21T10:27:42.050Z,1018.36
2022-09-21T10:28:42.053Z,1018.37
2022-09-21T10:29:42.075Z,1018.41
2022-09-21T10:30:42.016Z,1018.42
2022-09-21T10:31:42.023Z,1018.41
2022-09-21T10:32:42.003Z,1018.39
2022-09-21T10:33:41.981Z,1018.42
2022-09-21T10:34:42.021Z,1018.36
2022-09-21T10:35:41.967Z,1018.34
2022-09-21T10:36:41.964Z,1018.33
2022-09-21T10:37:41.953Z,1018.38
2022-09-21T10:38:41.934Z,1018.28
2022-09-21T10:39:41.981Z,1018.30
2022-09-21T10:40:41.991Z,1018.27
2022-09-21T10:41:41.894Z,1018.30
2022-09-21T10:42:41.901Z,1018.36
2022-09-21T10:43:43.679Z,1018.35
2022-09-21T10:44:41.908Z,1018.30
2022-09-21T10:45:41.863Z,1018.30
2022-09-21T10:46:41.892Z,1018.34
2022-09-21T10:47:41.828Z,1018.34
2022-09-21T10:48:41.804Z,1018.34
2022-09-21T10:49:41.823Z,1018.29
2022-09-21T10:50:41.837Z,1018.31
2022-09-21T10:51:41.791Z,1018.33
2022-09-21T10:52:41.758Z,1018.33
2022-09-21T10:53:41.759Z,1018.34
2022-09-21T10:54:41.774Z,1018.33
2022-09-21T10:55:52.669Z,1018.22
2022-09-21T10:56:42.708Z,1018.23
2022-09-21T10:57:41.717Z,1018.25
2022-09-21T10:58:41.746Z,1018.24
2022-09-21T10:59:41.731Z,1018.26
2022-09-21T11:00:41.694Z,1018.20
2022-09-21T11:01:41.741Z,1018.26
2022-09-21T11:02:41.715Z,1018.27
2022-09-21T11:03:41.663Z,1018.20
2022-09-21T11:04:41.662Z,1018.22
2022-09-21T11:05:41.635Z,1018.20
2022-09-21T11:06:41.627Z,1018.26
2022-09-21T11:07:41.609Z,1018.23
2022-09-21T11:08:41.588Z,1018.23
2022-09-21T11:09:41.687Z,1018.22
2022-09-21T11:10:41.578Z,1018.20
2022-09-21T11:11:41.586Z,1018.22
2022-09-21T11:12:41.560Z,1018.17
2022-09-21T11:13:41.528Z,1018.23
2022-09-21T11:14:41.550Z,1018.25
2022-09-21T11:15:41.577Z,1018.27
2022-09-21T11:16:41.515Z,1018.25
2022-09-21T11:17:41.512Z,1018.18
2022-09-21T11:18:41.474Z,1018.23
2022-09-21T11:19:41.504Z,1018.18
2022-09-21T11:20:41.441Z,1018.14
2022-09-21T11:21:41.451Z,1018.16
2022-09-21T11:22:41.449Z,1018.16
2022-09-21T11:23:41.436Z,1018.20
2022-09-21T11:24:41.400Z,1018.21
2022-09-21T11:25:41.438Z,1018.25
2022-09-21T11:26:41.415Z,1018.24
2022-09-21T11:27:41.389Z,1018.28
2022-09-21T11:28:41.375Z,1018.26
2022-09-21T11:29:41.359Z,1018.28
2022-09-21T11:30:41.411Z,1018.30
2022-09-21T11:31:41.339Z,1018.26
2022-09-21T11:32:41.343Z,1018.26
2022-09-21T11:33:41.314Z,1018.26
2022-09-21T11:34:41.301Z,1018.24
2022-09-21T11:35:41.338Z,1018.25
2022-09-21T11:36:41.282Z,1018.25
2022-09-21T11:37:41.277Z,1018.26
2022-09-21T11:38:43.292Z,1018.28
2022-09-21T11:39:41.259Z,1018.30
2022-09-21T11:40:41.397Z,1018.24
2022-09-21T11:41:41.225Z,1018.24
2022-09-21T11:42:41.233Z,1018.18
2022-09-21T11:43:41.205Z,1018.23
2022-09-21T11:44:41.186Z,1018.21
2022-09-21T11:45:41.259Z,1018.23
2022-09-21T11:46:41.177Z,1018.21
2022-09-21T11:47:41.157Z,1018.25
2022-09-21T11:48:41.161Z,1018.21
2022-09-21T11:49:41.147Z,1018.22
2022-09-21T11:50:41.195Z,1018.19
2022-09-21T11:51:41.126Z,1018.20
2022-09-21T11:52:41.106Z,1018.18
2022-09-21T11:53:41.094Z,1018.26
2022-09-21T11:54:41.109Z,1018.23
2022-09-21T11:55:41.061Z,1018.24
2022-09-21T11:56:41.030Z,1018.22
2022-09-21T11:57:41.055Z,1018.23
2022-09-21T11:58:41.039Z,1018.18
2022-09-21T11:59:41.038Z,1018.09
2022-09-21T12:00:41.014Z,1018.20
2022-09-21T12:01:41.011Z,1018.13
2022-09-21T12:02:41.238Z,1018.23
2022-09-21T12:03:40.985Z,1018.08
2022-09-21T12:04:40.950Z,1018.02
2022-09-21T12:05:40.977Z,1018.01
2022-09-21T12:06:40.935Z,1018.01
2022-09-21T12:07:40.946Z,1018.03